sensor_id;sensor_type;location;lat;lon;timestamp;temperature;humidity
21193;DHT22;10754;51.106;7.164;2022-11-15T00:00:24;14.00;1.00
21193;DHT22;10754;51.106;7.164;2022-11-15T00:02:49;13.90;1.00
21193;DHT22;10754;51.106;7.164;2022-11-15T00:05:15;14.00;1.00
21193;DHT22;10754;51.106;7.164;2022-11-15T00:07:40;14.00;1.00
21193;DHT22;10754;51.106;7.164;2022-11-15T00:10:06;14.10;1.00
21193;DHT22;10754;51.106;7.164;2022-11-15T00:12:31;14.20;1.00
21193;DHT22;10754;51.106;7.164;2022-11-15T00:14:57;14.30;1.00
21193;DHT22;10754;51.106;7.164;2022-11-15T00:17:22;14.10;1.00
21193;DHT22;10754;51.106;7.164;2022-11-15T00:19:48;14.20;1.00
21193;DHT22;10754;51.106;7.164;2022-11-15T00:22:14;14.30;1.00
21193;DHT22;10754;51.106;7.164;2022-11-15T00:24:40;14.30;1.00
21193;DHT22;10754;51.106;7.164;2022-11-15T00:27:05;14.30;1.00
21193;DHT22;10754;51.106;7.164;2022-11-15T00:29:31;14.20;1.00
21193;DHT22;10754;51.106;7.164;2022-11-15T00:31:56;14.40;1.00
21193;DHT22;10754;51.106;7.164;2022-11-15T00:34:21;14.40;1.00
21193;DHT22;10754;51.106;7.164;2022-11-15T00:36:47;14.50;1.00
21193;DHT22;10754;51.106;7.164;2022-11-15T00:39:12;14.50;1.00
21193;DHT22;10754;51.106;7.164;2022-11-15T00:41:38;14.50;1.00
21193;DHT22;10754;51.106;7.164;2022-11-15T00:44:03;14.50;1.00
21193;DHT22;10754;51.106;7.164;2022-11-15T00:46:29;14.50;1.00
21193;DHT22;10754;51.106;7.164;2022-11-15T00:48:54;14.60;1.00
21193;DHT22;10754;51.106;7.164;2022-11-15T00:51:20;14.70;1.00
21193;DHT22;10754;51.106;7.164;2022-11-15T00:53:45;14.70;1.00
21193;DHT22;10754;51.106;7.164;2022-11-15T00:56:11;14.80;1.00
21193;DHT22;10754;51.106;7.164;2022-11-15T00:58:36;14.70;1.00
21193;DHT22;10754;51.106;7.164;2022-11-15T01:01:07;14.70;1.00
21193;DHT22;10754;51.106;7.164;2022-11-15T01:03:34;14.60;1.00
21193;DHT22;10754;51.106;7.164;2022-11-15T01:06:00;14.70;1.00
21193;DHT22;10754;51.106;7.164;2022-11-15T01:08:25;14.70;1.00
21193;DHT22;10754;51.106;7.164;2022-11-15T01:10:51;14.70;1.00
21193;DHT22;10754;51.106;7.164;2022-11-15T01:13:16;14.60;1.00
21193;DHT22;10754;51.106;7.164;2022-11-15T01:15:42;14.50;1.00
21193;DHT22;10754;51.106;7.164;2022-11-15T01:18:08;14.60;1.00
21193;DHT22;10754;51.106;7.164;2022-11-15T01:20:33;14.70;1.00
21193;DHT22;10754;51.106;7.164;2022-11-15T01:22:59;14.60;1.00
21193;DHT22;10754;51.106;7.164;2022-11-15T01:25:24;14.80;1.00
21193;DHT22;10754;51.106;7.164;2022-11-15T01:27:50;14.80;1.00
21193;DHT22;10754;51.106;7.164;2022-11-15T01:30:15;14.80;1.00
21193;DHT22;10754;51.106;7.164;2022-11-15T01:32:41;14.90;1.00
21193;DHT22;10754;51.106;7.164;2022-11-15T01:35:07;14.90;1.00
21193;DHT22;10754;51.106;7.164;2022-11-15T01:37:32;14.80;1.00
21193;DHT22;10754;51.106;7.164;2022-11-15T01:39:58;14.80;1.00
21193;DHT22;10754;51.106;7.164;2022-11-15T01:42:23;14.80;1.00
21193;DHT22;10754;51.106;7.164;2022-11-15T01:44:52;14.90;1.00
21193;DHT22;10754;51.106;7.164;2022-11-15T01:47:21;14.90;1.00
21193;DHT22;10754;51.106;7.164;2022-11-15T01:50:12;15.00;1.00
21193;DHT22;10754;51.106;7.164;2022-11-15T01:52:39;15.10;1.00
21193;DHT22;10754;51.106;7.164;2022-11-15T01:55:21;15.00;1.00
21193;DHT22;10754;51.106;7.164;2022-11-15T01:57:50;15.00;1.00
21193;DHT22;10754;51.106;7.164;2022-11-15T02:00:16;15.00;1.00
21193;DHT22;10754;51.106;7.164;2022-11-15T02:02:42;15.00;1.00
21193;DHT22;10754;51.106;7.164;2022-11-15T02:05:08;15.10;1.00
21193;DHT22;10754;51.106;7.164;2022-11-15T02:07:35;15.10;1.00
21193;DHT22;10754;51.106;7.164;2022-11-15T02:10:07;15.10;1.00
21193;DHT22;10754;51.106;7.164;2022-11-15T02:12:33;15.10;1.00
21193;DHT22;10754;51.106;7.164;2022-11-15T02:14:59;15.10;1.00
21193;DHT22;10754;51.106;7.164;2022-11-15T02:20:57;14.90;1.00
21193;DHT22;10754;51.106;7.164;2022-11-15T02:29:49;15.20;1.00
21193;DHT22;10754;51.106;7.164;2022-11-15T02:37:56;14.90;1.00
21193;DHT22;10754;51.106;7.164;2022-11-15T02:43:16;14.80;1.00
21193;DHT22;10754;51.106;7.164;2022-11-15T02:48:37;14.90;1.00
21193;DHT22;10754;51.106;7.164;2022-11-15T02:51:03;15.00;1.00
21193;DHT22;10754;51.106;7.164;2022-11-15T02:53:29;15.20;1.00
21193;DHT22;10754;51.106;7.164;2022-11-15T02:55:56;15.20;1.00
21193;DHT22;10754;51.106;7.164;2022-11-15T03:06:42;15.20;1.00
21193;DHT22;10754;51.106;7.164;2022-11-15T03:09:35;15.10;1.00
21193;DHT22;10754;51.106;7.164;2022-11-15T03:12:08;15.00;1.00
21193;DHT22;10754;51.106;7.164;2022-11-15T03:14:43;14.90;1.00
21193;DHT22;10754;51.106;7.164;2022-11-15T03:17:26;14.90;1.00
21193;DHT22;10754;51.106;7.164;2022-11-15T03:19:56;14.80;1.00
21193;DHT22;10754;51.106;7.164;2022-11-15T03:22:25;14.90;1.00
21193;DHT22;10754;51.106;7.164;2022-11-15T03:24:54;14.80;1.00
21193;DHT22;10754;51.106;7.164;2022-11-15T03:27:23;14.80;1.00
21193;DHT22;10754;51.106;7.164;2022-11-15T03:29:54;15.00;1.00
21193;DHT22;10754;51.106;7.164;2022-11-15T03:32:28;15.10;1.00
21193;DHT22;10754;51.106;7.164;2022-11-15T03:35:07;15.20;1.00
21193;DHT22;10754;51.106;7.164;2022-11-15T03:37:45;15.20;1.00
21193;DHT22;10754;51.106;7.164;2022-11-15T03:40:13;15.10;1.00
21193;DHT22;10754;51.106;7.164;2022-11-15T03:45:28;15.20;1.00
21193;DHT22;10754;51.106;7.164;2022-11-15T03:48:05;15.10;1.00
21193;DHT22;10754;51.106;7.164;2022-11-15T03:50:33;15.20;1.00
21193;DHT22;10754;51.106;7.164;2022-11-15T03:52:59;15.20;1.00
21193;DHT22;10754;51.106;7.164;2022-11-15T03:55:24;15.20;1.00
21193;DHT22;10754;51.106;7.164;2022-11-15T03:57:56;15.30;1.00
21193;DHT22;10754;51.106;7.164;2022-11-15T04:00:23;15.30;1.00
21193;DHT22;10754;51.106;7.164;2022-11-15T04:02:48;15.30;1.00
21193;DHT22;10754;51.106;7.164;2022-11-15T04:05:14;15.40;1.00
21193;DHT22;10754;51.106;7.164;2022-11-15T04:07:39;15.40;1.00
21193;DHT22;10754;51.106;7.164;2022-11-15T04:10:05;15.60;1.00
21193;DHT22;10754;51.106;7.164;2022-11-15T04:12:33;15.50;1.00
21193;DHT22;10754;51.106;7.164;2022-11-15T04:15:03;15.60;1.00
21193;DHT22;10754;51.106;7.164;2022-11-15T04:17:36;15.60;1.00
21193;DHT22;10754;51.106;7.164;2022-11-15T04:20:16;15.60;1.00
21193;DHT22;10754;51.106;7.164;2022-11-15T04:23:02;15.60;1.00
21193;DHT22;10754;51.106;7.164;2022-11-15T04:25:49;15.60;1.00
21193;DHT22;10754;51.106;7.164;2022-11-15T04:28:16;15.60;1.00
21193;DHT22;10754;51.106;7.164;2022-11-15T04:30:42;15.50;1.00
21193;DHT22;10754;51.106;7.164;2022-11-15T04:33:07;15.50;1.00
21193;DHT22;10754;51.106;7.164;2022-11-15T04:35:33;15.60;1.00
21193;DHT22;10754;51.106;7.164;2022-11-15T04:37:59;15.60;1.00
21193;DHT22;10754;51.106;7.164;2022-11-15T04:40:24;15.50;1.00
21193;DHT22;10754;51.106;7.164;2022-11-15T04:42:50;15.50;1.00
21193;DHT22;10754;51.106;7.164;2022-11-15T04:45:15;15.50;1.00
21193;DHT22;10754;51.106;7.164;2022-11-15T04:47:44;15.50;1.00
21193;DHT22;10754;51.106;7.164;2022-11-15T04:50:10;15.60;1.00
21193;DHT22;10754;51.106;7.164;2022-11-15T04:52:59;15.60;1.00
21193;DHT22;10754;51.106;7.164;2022-11-15T04:55:24;15.50;1.00
21193;DHT22;10754;51.106;7.164;2022-11-15T04:58:00;15.60;1.00
21193;DHT22;10754;51.106;7.164;2022-11-15T05:00:27;15.60;1.00
21193;DHT22;10754;51.106;7.164;2022-11-15T05:02:53;15.50;1.00
21193;DHT22;10754;51.106;7.164;2022-11-15T05:05:37;15.50;1.00
21193;DHT22;10754;51.106;7.164;2022-11-15T05:08:03;15.60;1.00
21193;DHT22;10754;51.106;7.164;2022-11-15T05:10:28;15.60;1.00
21193;DHT22;10754;51.106;7.164;2022-11-15T05:12:54;15.60;1.00
21193;DHT22;10754;51.106;7.164;2022-11-15T05:15:19;15.70;1.00
21193;DHT22;10754;51.106;7.164;2022-11-15T05:17:45;15.60;1.00
21193;DHT22;10754;51.106;7.164;2022-11-15T05:20:11;15.70;1.00
21193;DHT22;10754;51.106;7.164;2022-11-15T05:22:37;15.70;1.00
21193;DHT22;10754;51.106;7.164;2022-11-15T05:25:03;15.70;1.00
21193;DHT22;10754;51.106;7.164;2022-11-15T05:27:28;15.60;1.00
21193;DHT22;10754;51.106;7.164;2022-11-15T05:29:54;15.70;1.00
21193;DHT22;10754;51.106;7.164;2022-11-15T05:32:20;15.60;1.00
21193;DHT22;10754;51.106;7.164;2022-11-15T05:34:46;15.70;1.00
21193;DHT22;10754;51.106;7.164;2022-11-15T05:37:12;15.60;1.00
21193;DHT22;10754;51.106;7.164;2022-11-15T05:39:38;15.60;1.00
21193;DHT22;10754;51.106;7.164;2022-11-15T05:42:14;15.60;1.00
21193;DHT22;10754;51.106;7.164;2022-11-15T05:44:44;15.70;1.00
21193;DHT22;10754;51.106;7.164;2022-11-15T05:47:13;15.60;1.00
21193;DHT22;10754;51.106;7.164;2022-11-15T05:49:40;15.60;1.00
21193;DHT22;10754;51.106;7.164;2022-11-15T05:52:09;15.50;1.00
21193;DHT22;10754;51.106;7.164;2022-11-15T05:54:36;15.60;1.00
21193;DHT22;10754;51.106;7.164;2022-11-15T05:57:03;15.50;1.00
21193;DHT22;10754;51.106;7.164;2022-11-15T05:59:30;15.60;1.00
21193;DHT22;10754;51.106;7.164;2022-11-15T06:01:56;15.60;1.00
21193;DHT22;10754;51.106;7.164;2022-11-15T06:04:22;15.60;1.00
21193;DHT22;10754;51.106;7.164;2022-11-15T06:06:48;15.60;1.00
21193;DHT22;10754;51.106;7.164;2022-11-15T06:09:13;15.50;1.00
21193;DHT22;10754;51.106;7.164;2022-11-15T06:11:39;15.50;1.00
21193;DHT22;10754;51.106;7.164;2022-11-15T06:14:04;15.60;1.00
21193;DHT22;10754;51.106;7.164;2022-11-15T06:16:30;15.50;1.00
21193;DHT22;10754;51.106;7.164;2022-11-15T06:18:55;15.50;1.00
21193;DHT22;10754;51.106;7.164;2022-11-15T06:21:21;15.40;1.00
21193;DHT22;10754;51.106;7.164;2022-11-15T06:23:47;15.40;1.00
21193;DHT22;10754;51.106;7.164;2022-11-15T06:26:12;15.40;1.00
21193;DHT22;10754;51.106;7.164;2022-11-15T06:28:37;15.30;1.00
21193;DHT22;10754;51.106;7.164;2022-11-15T06:31:09;15.30;1.00
21193;DHT22;10754;51.106;7.164;2022-11-15T06:33:36;15.40;1.00
21193;DHT22;10754;51.106;7.164;2022-11-15T06:36:10;15.30;1.00
21193;DHT22;10754;51.106;7.164;2022-11-15T06:38:36;15.30;1.00
21193;DHT22;10754;51.106;7.164;2022-11-15T06:41:06;15.20;1.00
21193;DHT22;10754;51.106;7.164;2022-11-15T06:43:33;15.20;1.00
21193;DHT22;10754;51.106;7.164;2022-11-15T06:45:59;15.20;1.00
21193;DHT22;10754;51.106;7.164;2022-11-15T06:48:26;15.10;1.00
21193;DHT22;10754;51.106;7.164;2022-11-15T06:50:53;15.10;1.00
21193;DHT22;10754;51.106;7.164;2022-11-15T06:53:19;15.10;1.00
21193;DHT22;10754;51.106;7.164;2022-11-15T06:55:45;15.00;1.00
21193;DHT22;10754;51.106;7.164;2022-11-15T06:58:11;14.90;1.00
21193;DHT22;10754;51.106;7.164;2022-11-15T07:00:36;15.00;1.00
21193;DHT22;10754;51.106;7.164;2022-11-15T07:03:02;15.00;1.00
21193;DHT22;10754;51.106;7.164;2022-11-15T07:05:28;14.90;1.00
21193;DHT22;10754;51.106;7.164;2022-11-15T07:07:54;14.90;1.00
21193;DHT22;10754;51.106;7.164;2022-11-15T07:10:21;14.90;1.00
21193;DHT22;10754;51.106;7.164;2022-11-15T07:12:48;14.90;1.00
21193;DHT22;10754;51.106;7.164;2022-11-15T07:15:14;14.90;1.00
21193;DHT22;10754;51.106;7.164;2022-11-15T07:17:40;14.90;1.00
21193;DHT22;10754;51.106;7.164;2022-11-15T07:20:06;14.90;1.00
21193;DHT22;10754;51.106;7.164;2022-11-15T07:22:31;14.90;1.00
21193;DHT22;10754;51.106;7.164;2022-11-15T07:24:57;14.90;1.00
21193;DHT22;10754;51.106;7.164;2022-11-15T07:27:22;14.70;1.00
21193;DHT22;10754;51.106;7.164;2022-11-15T07:29:48;14.80;1.00
21193;DHT22;10754;51.106;7.164;2022-11-15T07:32:13;14.70;1.00
21193;DHT22;10754;51.106;7.164;2022-11-15T07:34:39;14.70;1.00
21193;DHT22;10754;51.106;7.164;2022-11-15T07:37:04;14.70;1.00
21193;DHT22;10754;51.106;7.164;2022-11-15T07:39:30;14.70;1.00
21193;DHT22;10754;51.106;7.164;2022-11-15T07:41:55;14.70;1.00
21193;DHT22;10754;51.106;7.164;2022-11-15T07:44:41;14.70;1.00
21193;DHT22;10754;51.106;7.164;2022-11-15T07:47:06;14.70;1.00
21193;DHT22;10754;51.106;7.164;2022-11-15T07:49:32;14.80;1.00
21193;DHT22;10754;51.106;7.164;2022-11-15T07:51:57;14.70;1.00
21193;DHT22;10754;51.106;7.164;2022-11-15T07:54:23;14.70;1.00
21193;DHT22;10754;51.106;7.164;2022-11-15T07:56:48;14.60;1.00
21193;DHT22;10754;51.106;7.164;2022-11-15T07:59:14;14.70;1.00
21193;DHT22;10754;51.106;7.164;2022-11-15T08:01:39;14.80;1.00
21193;DHT22;10754;51.106;7.164;2022-11-15T08:04:04;14.80;1.00
21193;DHT22;10754;51.106;7.164;2022-11-15T08:06:30;14.80;1.00
21193;DHT22;10754;51.106;7.164;2022-11-15T08:08:55;14.90;1.00
21193;DHT22;10754;51.106;7.164;2022-11-15T08:11:21;15.00;1.00
21193;DHT22;10754;51.106;7.164;2022-11-15T08:13:46;14.90;1.00
21193;DHT22;10754;51.106;7.164;2022-11-15T08:16:12;14.70;1.00
21193;DHT22;10754;51.106;7.164;2022-11-15T08:18:37;14.90;1.00
21193;DHT22;10754;51.106;7.164;2022-11-15T08:21:04;15.00;1.00
21193;DHT22;10754;51.106;7.164;2022-11-15T08:23:30;15.00;1.00
21193;DHT22;10754;51.106;7.164;2022-11-15T08:26:00;15.10;1.00
21193;DHT22;10754;51.106;7.164;2022-11-15T08:28:26;15.20;1.00
21193;DHT22;10754;51.106;7.164;2022-11-15T08:30:51;15.20;1.00
21193;DHT22;10754;51.106;7.164;2022-11-15T08:33:17;15.10;1.00
21193;DHT22;10754;51.106;7.164;2022-11-15T08:35:43;15.10;1.00
21193;DHT22;10754;51.106;7.164;2022-11-15T08:38:09;15.20;1.00
21193;DHT22;10754;51.106;7.164;2022-11-15T08:40:35;15.20;1.00
21193;DHT22;10754;51.106;7.164;2022-11-15T08:43:01;15.10;1.00
21193;DHT22;10754;51.106;7.164;2022-11-15T08:45:28;15.10;1.00
21193;DHT22;10754;51.106;7.164;2022-11-15T08:47:54;15.20;1.00
21193;DHT22;10754;51.106;7.164;2022-11-15T08:50:20;15.10;1.00
21193;DHT22;10754;51.106;7.164;2022-11-15T08:52:45;15.20;1.00
21193;DHT22;10754;51.106;7.164;2022-11-15T08:55:11;15.30;1.00
21193;DHT22;10754;51.106;7.164;2022-11-15T08:57:36;15.40;1.00
21193;DHT22;10754;51.106;7.164;2022-11-15T09:00:03;15.30;1.00
21193;DHT22;10754;51.106;7.164;2022-11-15T09:02:29;15.50;1.00
21193;DHT22;10754;51.106;7.164;2022-11-15T09:04:54;15.50;1.00
21193;DHT22;10754;51.106;7.164;2022-11-15T09:07:20;15.50;1.00
21193;DHT22;10754;51.106;7.164;2022-11-15T09:09:45;15.50;1.00
21193;DHT22;10754;51.106;7.164;2022-11-15T09:12:11;15.60;1.00
21193;DHT22;10754;51.106;7.164;2022-11-15T09:14:36;15.60;1.00
21193;DHT22;10754;51.106;7.164;2022-11-15T09:17:02;15.60;1.00
21193;DHT22;10754;51.106;7.164;2022-11-15T09:19:28;15.60;1.00
21193;DHT22;10754;51.106;7.164;2022-11-15T09:21:54;15.70;1.00
21193;DHT22;10754;51.106;7.164;2022-11-15T09:24:19;15.70;1.00
21193;DHT22;10754;51.106;7.164;2022-11-15T09:26:45;15.70;1.00
21193;DHT22;10754;51.106;7.164;2022-11-15T09:29:10;15.80;1.00
21193;DHT22;10754;51.106;7.164;2022-11-15T09:31:36;15.80;1.00
21193;DHT22;10754;51.106;7.164;2022-11-15T09:34:02;15.80;1.00
21193;DHT22;10754;51.106;7.164;2022-11-15T09:36:27;15.90;1.00
21193;DHT22;10754;51.106;7.164;2022-11-15T09:38:53;16.00;1.00
21193;DHT22;10754;51.106;7.164;2022-11-15T09:46:54;16.40;1.00
21193;DHT22;10754;51.106;7.164;2022-11-15T09:49:23;16.50;1.00
21193;DHT22;10754;51.106;7.164;2022-11-15T09:51:50;16.50;1.00
21193;DHT22;10754;51.106;7.164;2022-11-15T09:54:38;16.70;1.00
21193;DHT22;10754;51.106;7.164;2022-11-15T09:57:05;16.90;1.00
21193;DHT22;10754;51.106;7.164;2022-11-15T10:03:11;17.20;1.00
21193;DHT22;10754;51.106;7.164;2022-11-15T10:05:59;17.30;1.00
21193;DHT22;10754;51.106;7.164;2022-11-15T10:11:22;17.20;1.00
21193;DHT22;10754;51.106;7.164;2022-11-15T10:13:50;17.50;1.00
21193;DHT22;10754;51.106;7.164;2022-11-15T10:16:52;17.50;1.00
21193;DHT22;10754;51.106;7.164;2022-11-15T10:22:00;17.80;99.90
21193;DHT22;10754;51.106;7.164;2022-11-15T10:24:37;17.90;99.90
21193;DHT22;10754;51.106;7.164;2022-11-15T10:27:15;18.20;99.90
21193;DHT22;10754;51.106;7.164;2022-11-15T10:29:49;18.40;99.90
21193;DHT22;10754;51.106;7.164;2022-11-15T10:32:19;18.60;99.90
21193;DHT22;10754;51.106;7.164;2022-11-15T10:34:45;18.70;99.90
21193;DHT22;10754;51.106;7.164;2022-11-15T10:37:11;19.00;99.90
21193;DHT22;10754;51.106;7.164;2022-11-15T10:39:37;19.30;99.90
21193;DHT22;10754;51.106;7.164;2022-11-15T10:42:16;19.70;99.90
21193;DHT22;10754;51.106;7.164;2022-11-15T10:44:44;20.20;99.90
21193;DHT22;10754;51.106;7.164;2022-11-15T10:49:56;20.80;99.90
21193;DHT22;10754;51.106;7.164;2022-11-15T10:52:21;21.20;99.90
21193;DHT22;10754;51.106;7.164;2022-11-15T10:57:20;21.50;99.90
21193;DHT22;10754;51.106;7.164;2022-11-15T10:59:52;21.70;99.90
21193;DHT22;10754;51.106;7.164;2022-11-15T11:02:58;21.70;99.90
21193;DHT22;10754;51.106;7.164;2022-11-15T11:05:39;21.90;99.90
21193;DHT22;10754;51.106;7.164;2022-11-15T11:08:23;22.20;99.90
21193;DHT22;10754;51.106;7.164;2022-11-15T11:10:55;22.50;99.90
21193;DHT22;10754;51.106;7.164;2022-11-15T11:13:26;22.80;99.90
21193;DHT22;10754;51.106;7.164;2022-11-15T11:21:54;23.70;99.90
21193;DHT22;10754;51.106;7.164;2022-11-15T11:24:38;23.90;99.90
21193;DHT22;10754;51.106;7.164;2022-11-15T11:32:55;24.00;99.90
21193;DHT22;10754;51.106;7.164;2022-11-15T11:38:23;23.80;99.90
21193;DHT22;10754;51.106;7.164;2022-11-15T11:44:15;23.40;99.90
21193;DHT22;10754;51.106;7.164;2022-11-15T11:54:53;22.20;99.90
21193;DHT22;10754;51.106;7.164;2022-11-15T11:57:38;21.70;99.90
21193;DHT22;10754;51.106;7.164;2022-11-15T12:03:03;21.30;99.90
21193;DHT22;10754;51.106;7.164;2022-11-15T12:10:48;20.30;99.90
21193;DHT22;10754;51.106;7.164;2022-11-15T12:13:19;20.10;99.90
21193;DHT22;10754;51.106;7.164;2022-11-15T12:18:33;19.70;99.90
21193;DHT22;10754;51.106;7.164;2022-11-15T12:21:16;19.70;99.90
21193;DHT22;10754;51.106;7.164;2022-11-15T12:23:48;19.60;99.90
21193;DHT22;10754;51.106;7.164;2022-11-15T12:26:22;19.60;99.90
21193;DHT22;10754;51.106;7.164;2022-11-15T12:36:40;19.00;99.90
21193;DHT22;10754;51.106;7.164;2022-11-15T12:39:17;19.10;99.90
21193;DHT22;10754;51.106;7.164;2022-11-15T12:42:34;19.00;99.90
21193;DHT22;10754;51.106;7.164;2022-11-15T12:59:51;18.60;99.90
21193;DHT22;10754;51.106;7.164;2022-11-15T13:04:44;18.40;99.90
21193;DHT22;10754;51.106;7.164;2022-11-15T13:13:00;18.20;99.90
21193;DHT22;10754;51.106;7.164;2022-11-15T13:15:55;17.90;99.90
21193;DHT22;10754;51.106;7.164;2022-11-15T13:18:39;18.00;99.90
21193;DHT22;10754;51.106;7.164;2022-11-15T13:21:19;18.10;99.90
21193;DHT22;10754;51.106;7.164;2022-11-15T13:24:04;17.90;99.90
21193;DHT22;10754;51.106;7.164;2022-11-15T13:26:38;17.80;99.90
21193;DHT22;10754;51.106;7.164;2022-11-15T13:29:12;17.90;99.90
21193;DHT22;10754;51.106;7.164;2022-11-15T13:31:42;17.90;99.90
21193;DHT22;10754;51.106;7.164;2022-11-15T13:34:22;17.80;99.90
21193;DHT22;10754;51.106;7.164;2022-11-15T13:36:49;17.90;99.90
21193;DHT22;10754;51.106;7.164;2022-11-15T13:39:34;17.90;99.90
21193;DHT22;10754;51.106;7.164;2022-11-15T13:42:01;17.80;99.90
21193;DHT22;10754;51.106;7.164;2022-11-15T13:44:30;17.70;99.90
21193;DHT22;10754;51.106;7.164;2022-11-15T13:47:26;17.60;99.90
21193;DHT22;10754;51.106;7.164;2022-11-15T13:49:58;17.60;99.90
21193;DHT22;10754;51.106;7.164;2022-11-15T13:52:30;17.70;99.90
21193;DHT22;10754;51.106;7.164;2022-11-15T13:55:10;17.50;99.90
21193;DHT22;10754;51.106;7.164;2022-11-15T13:57:46;17.40;99.90
21193;DHT22;10754;51.106;7.164;2022-11-15T14:00:42;17.30;99.90
21193;DHT22;10754;51.106;7.164;2022-11-15T14:03:15;17.50;99.90
21193;DHT22;10754;51.106;7.164;2022-11-15T14:05:41;17.30;99.90
21193;DHT22;10754;51.106;7.164;2022-11-15T14:08:22;17.20;99.90
21193;DHT22;10754;51.106;7.164;2022-11-15T14:11:06;17.30;99.90
21193;DHT22;10754;51.106;7.164;2022-11-15T14:13:32;17.20;99.90
21193;DHT22;10754;51.106;7.164;2022-11-15T14:16:15;17.00;99.90
21193;DHT22;10754;51.106;7.164;2022-11-15T14:18:51;17.10;99.90
21193;DHT22;10754;51.106;7.164;2022-11-15T14:21:18;17.00;99.90
21193;DHT22;10754;51.106;7.164;2022-11-15T14:23:44;16.90;99.90
21193;DHT22;10754;51.106;7.164;2022-11-15T14:26:34;17.00;99.90
21193;DHT22;10754;51.106;7.164;2022-11-15T14:29:23;17.10;99.90
21193;DHT22;10754;51.106;7.164;2022-11-15T14:31:49;17.20;99.90
21193;DHT22;10754;51.106;7.164;2022-11-15T14:34:14;17.20;99.90
21193;DHT22;10754;51.106;7.164;2022-11-15T14:36:40;17.20;99.90
21193;DHT22;10754;51.106;7.164;2022-11-15T14:39:05;17.00;99.90
21193;DHT22;10754;51.106;7.164;2022-11-15T14:41:35;16.90;99.90
21193;DHT22;10754;51.106;7.164;2022-11-15T14:44:03;17.00;1.00
21193;DHT22;10754;51.106;7.164;2022-11-15T14:46:29;17.10;99.90
21193;DHT22;10754;51.106;7.164;2022-11-15T14:48:55;16.90;99.90
21193;DHT22;10754;51.106;7.164;2022-11-15T14:51:20;17.00;1.00
21193;DHT22;10754;51.106;7.164;2022-11-15T14:53:46;17.10;1.40
21193;DHT22;10754;51.106;7.164;2022-11-15T14:56:13;16.90;1.00
21193;DHT22;10754;51.106;7.164;2022-11-15T14:58:38;16.90;1.00
21193;DHT22;10754;51.106;7.164;2022-11-15T15:01:13;16.80;1.00
21193;DHT22;10754;51.106;7.164;2022-11-15T15:03:40;16.90;1.00
21193;DHT22;10754;51.106;7.164;2022-11-15T15:06:06;16.90;1.00
21193;DHT22;10754;51.106;7.164;2022-11-15T15:08:31;16.80;1.00
21193;DHT22;10754;51.106;7.164;2022-11-15T15:10:57;16.80;1.00
21193;DHT22;10754;51.106;7.164;2022-11-15T15:13:23;16.80;1.00
21193;DHT22;10754;51.106;7.164;2022-11-15T15:15:50;16.90;1.00
21193;DHT22;10754;51.106;7.164;2022-11-15T15:18:17;16.70;1.00
21193;DHT22;10754;51.106;7.164;2022-11-15T15:20:44;16.80;1.00
21193;DHT22;10754;51.106;7.164;2022-11-15T15:23:16;16.80;1.00
21193;DHT22;10754;51.106;7.164;2022-11-15T15:25:42;16.70;1.00
21193;DHT22;10754;51.106;7.164;2022-11-15T15:28:09;16.70;1.00
21193;DHT22;10754;51.106;7.164;2022-11-15T15:30:34;16.70;1.00
21193;DHT22;10754;51.106;7.164;2022-11-15T15:33:00;16.80;1.00
21193;DHT22;10754;51.106;7.164;2022-11-15T15:35:30;16.70;1.00
21193;DHT22;10754;51.106;7.164;2022-11-15T15:37:56;16.70;1.00
21193;DHT22;10754;51.106;7.164;2022-11-15T15:40:23;16.70;1.00
21193;DHT22;10754;51.106;7.164;2022-11-15T15:42:49;16.50;1.00
21193;DHT22;10754;51.106;7.164;2022-11-15T15:45:15;16.60;1.00
21193;DHT22;10754;51.106;7.164;2022-11-15T15:47:41;16.50;1.00
21193;DHT22;10754;51.106;7.164;2022-11-15T15:50:27;16.50;1.00
21193;DHT22;10754;51.106;7.164;2022-11-15T15:52:55;16.60;1.00
21193;DHT22;10754;51.106;7.164;2022-11-15T15:55:22;16.50;1.00
21193;DHT22;10754;51.106;7.164;2022-11-15T15:57:47;16.50;1.00
21193;DHT22;10754;51.106;7.164;2022-11-15T16:00:14;16.40;1.00
21193;DHT22;10754;51.106;7.164;2022-11-15T16:02:40;16.50;1.00
21193;DHT22;10754;51.106;7.164;2022-11-15T16:05:06;16.40;1.00
21193;DHT22;10754;51.106;7.164;2022-11-15T16:07:32;16.60;1.00
21193;DHT22;10754;51.106;7.164;2022-11-15T16:09:58;16.50;1.00
21193;DHT22;10754;51.106;7.164;2022-11-15T16:12:35;16.70;1.00
21193;DHT22;10754;51.106;7.164;2022-11-15T16:15:02;16.50;1.00
21193;DHT22;10754;51.106;7.164;2022-11-15T16:17:38;16.60;1.00
21193;DHT22;10754;51.106;7.164;2022-11-15T16:20:05;16.60;1.00
21193;DHT22;10754;51.106;7.164;2022-11-15T16:22:31;16.50;1.00
21193;DHT22;10754;51.106;7.164;2022-11-15T16:24:57;16.40;1.00
21193;DHT22;10754;51.106;7.164;2022-11-15T16:27:23;16.40;1.00
21193;DHT22;10754;51.106;7.164;2022-11-15T16:29:49;16.60;1.00
21193;DHT22;10754;51.106;7.164;2022-11-15T16:32:15;16.60;1.00
21193;DHT22;10754;51.106;7.164;2022-11-15T16:34:41;16.60;1.00
21193;DHT22;10754;51.106;7.164;2022-11-15T16:37:24;16.50;1.00
21193;DHT22;10754;51.106;7.164;2022-11-15T16:39:50;16.80;1.00
21193;DHT22;10754;51.106;7.164;2022-11-15T16:42:15;16.70;1.00
21193;DHT22;10754;51.106;7.164;2022-11-15T16:44:41;16.70;1.00
21193;DHT22;10754;51.106;7.164;2022-11-15T16:47:16;16.60;1.00
21193;DHT22;10754;51.106;7.164;2022-11-15T16:49:43;16.50;1.00
21193;DHT22;10754;51.106;7.164;2022-11-15T16:52:09;16.40;1.00
21193;DHT22;10754;51.106;7.164;2022-11-15T16:54:35;16.40;1.00
21193;DHT22;10754;51.106;7.164;2022-11-15T16:57:00;16.50;1.00
21193;DHT22;10754;51.106;7.164;2022-11-15T16:59:26;16.60;1.00
21193;DHT22;10754;51.106;7.164;2022-11-15T17:01:51;16.50;1.00
21193;DHT22;10754;51.106;7.164;2022-11-15T17:04:18;16.50;1.00
21193;DHT22;10754;51.106;7.164;2022-11-15T17:06:46;16.50;1.00
21193;DHT22;10754;51.106;7.164;2022-11-15T17:09:17;16.60;1.00
21193;DHT22;10754;51.106;7.164;2022-11-15T17:11:43;16.60;1.00
21193;DHT22;10754;51.106;7.164;2022-11-15T17:14:09;16.60;1.00
21193;DHT22;10754;51.106;7.164;2022-11-15T17:16:35;16.50;1.00
21193;DHT22;10754;51.106;7.164;2022-11-15T17:19:03;16.60;1.00
21193;DHT22;10754;51.106;7.164;2022-11-15T17:21:29;16.60;1.00
21193;DHT22;10754;51.106;7.164;2022-11-15T17:23:54;16.60;1.00
21193;DHT22;10754;51.106;7.164;2022-11-15T17:26:20;16.60;1.00
21193;DHT22;10754;51.106;7.164;2022-11-15T17:28:46;16.50;1.00
21193;DHT22;10754;51.106;7.164;2022-11-15T17:31:13;16.80;1.00
21193;DHT22;10754;51.106;7.164;2022-11-15T17:33:39;16.90;1.00
21193;DHT22;10754;51.106;7.164;2022-11-15T17:36:09;16.80;1.00
21193;DHT22;10754;51.106;7.164;2022-11-15T17:38:34;16.80;1.00
21193;DHT22;10754;51.106;7.164;2022-11-15T17:41:06;16.60;1.00
21193;DHT22;10754;51.106;7.164;2022-11-15T17:43:34;16.60;1.00
21193;DHT22;10754;51.106;7.164;2022-11-15T17:46:03;16.60;1.00
21193;DHT22;10754;51.106;7.164;2022-11-15T17:48:29;16.70;1.00
21193;DHT22;10754;51.106;7.164;2022-11-15T17:51:00;16.60;1.00
21193;DHT22;10754;51.106;7.164;2022-11-15T17:53:26;16.40;1.00